| Date | Time | Temp. (oF) | Dew Point (oF) | Rel. Hum. (%) | Press. (in.) | Wind Dir. | Wind Speed (mph) | Hourly Rainfall (in.) |
|
|---|---|---|---|---|---|---|---|---|---|
| 1 | 08/18 | 00:00 | 70 | 69 | 100 | 29.88 | SSW | 1 | 0.00 |
| 2 | 08/17 | 23:00 | 70 | 69 | 100 | 29.88 | SE | 0 | 0.01 |
| 3 | 08/17 | 22:00 | 71 | 71 | 100 | 29.88 | N | 1 | 0.00 |
| 4 | 08/17 | 21:00 | 72 | 72 | 100 | 29.88 | NW | 3 | 0.01 |
| 5 | 08/17 | 20:00 | 73 | 71 | 95 | 29.87 | W | 3 | 0.00 |
| 6 | 08/17 | 19:00 | 74 | 70 | 88 | 29.84 | NE | 3 | 0.00 |
| 7 | 08/17 | 18:00 | 77 | 71 | 83 | 29.83 | SSW | 8 | 0.00 |
| 8 | 08/17 | 17:00 | 85 | 69 | 60 | 29.81 | SSW | 6 | 0.00 |
| 9 | 08/17 | 16:00 | 86 | 67 | 54 | 29.79 | SSW | 7 | 0.00 |
| 10 | 08/17 | 15:00 | 88 | 68 | 52 | 29.81 | SSW | 7 | 0.00 |
| 11 | 08/17 | 14:00 | 86 | 67 | 55 | 29.84 | SSW | 5 | 0.00 |
| 12 | 08/17 | 13:00 | 85 | 70 | 63 | 29.85 | S | 5 | 0.00 |
| 13 | 08/17 | 12:00 | 83 | 71 | 69 | 29.87 | SE | 4 | 0.00 |
| 14 | 08/17 | 11:00 | 80 | 72 | 77 | 29.89 | SSE | 3 | 0.00 |
| 15 | 08/17 | 10:00 | 77 | 69 | 79 | 29.89 | S | 7 | 0.00 |
| 16 | 08/17 | 09:00 | 72 | 70 | 94 | 29.90 | SSE | 3 | 0.00 |
| 17 | 08/17 | 08:00 | 66 | 66 | 100 | 29.91 | SSW | 0 | 0.00 |
| 18 | 08/17 | 07:00 | 64 | 63 | 100 | 29.90 | SW | 0 | 0.00 |
| 19 | 08/17 | 06:00 | 63 | 63 | 100 | 29.90 | SSW | 0 | 0.00 |
| 20 | 08/17 | 05:00 | 64 | 63 | 100 | 29.89 | SSW | 0 | 0.00 |
| 21 | 08/17 | 04:00 | 65 | 64 | 100 | 29.89 | SSW | 0 | 0.00 |
| 22 | 08/17 | 03:00 | 65 | 64 | 100 | 29.92 | SSW | 0 | 0.00 |
| 23 | 08/17 | 02:00 | 66 | 66 | 100 | 29.94 | SSW | 0 | 0.00 |
| 24 | 08/17 | 01:00 | 66 | 66 | 100 | 29.94 | SSW | 0 | 0.00 |